Time;durP1;ratioP1;P1;durP2;ratioP2;P2;SDS_P1;SDS_P2;PMS_P1;PMS_P2;Temp;Humidity;BMP_temperature;BMP_pressure;BME280_temperature;BME280_humidity;BME280_pressure;Samples;Min_cycle;Max_cycle;Signal;HPM_P1;HPM_P2
2022/01/08 00:01:38;;;;;;;13.10;8.80;;;;;;100453.34;;;;106806;1281;64875;-26
2022/01/08 00:04:06;;;;;;;15.00;9.40;;;;;;100450.85;;;;106811;1281;64767;-28
2022/01/08 00:06:33;;;;;;;13.90;8.90;;;;;;100447.42;;;;106827;1281;64954;-26
2022/01/08 00:09:00;;;;;;;15.10;9.90;;;;;;100444.04;;;;106788;1281;65953;-24
2022/01/08 00:11:28;;;;;;;12.70;9.00;;;;;;100442.95;;;;106801;1281;64883;-25
2022/01/08 00:13:55;;;;;;;12.20;8.50;;;;;;100442.88;;;;106707;1281;65022;-25
2022/01/08 00:16:23;;;;;;;13.50;9.10;;;;;;100441.87;;;;106796;1281;64749;-26
2022/01/08 00:18:50;;;;;;;15.80;9.60;;;;;;100440.52;;;;106749;1281;63964;-29
2022/01/08 00:21:18;;;;;;;14.70;9.90;;;;;;100437.80;;;;106808;1281;65861;-27
2022/01/08 00:23:45;;;;;;;13.40;8.90;;;;;;100439.29;;;;106774;1281;64887;-26
2022/01/08 00:26:16;;;;;;;14.50;9.00;;;;;;100434.02;;;;106800;1281;64881;-29
2022/01/08 00:28:43;;;;;;;13.50;9.60;;;;;;100434.67;;;;106808;1281;64872;-27
2022/01/08 00:31:10;;;;;;;17.20;9.50;;;;;;100429.35;;;;106823;1281;64880;-30
2022/01/08 00:33:38;;;;;;;13.80;9.50;;;;;;100426.93;;;;106709;1281;65971;-26
2022/01/08 00:36:07;;;;;;;14.20;9.00;;;;;;100429.20;;;;106890;1281;64742;-25
2022/01/08 00:38:35;;;;;;;13.80;9.20;;;;;;100432.39;;;;106609;1282;64865;-25
2022/01/08 00:41:02;;;;;;;13.40;8.50;;;;;;100427.67;;;;106800;1281;64881;-26
2022/01/08 00:43:29;;;;;;;13.30;9.10;;;;;;100423.92;;;;106829;1281;64791;-27
2022/01/08 00:45:57;;;;;;;13.80;9.00;;;;;;100421.80;;;;106814;1281;66163;-26
2022/01/08 00:48:24;;;;;;;15.10;9.60;;;;;;100420.73;;;;106813;1281;64737;-25
2022/01/08 00:50:52;;;;;;;14.10;9.00;;;;;;100415.68;;;;106801;1281;65165;-26
2022/01/08 00:53:20;;;;;;;13.90;8.90;;;;;;100411.86;;;;106836;1281;64992;-25
2022/01/08 00:55:47;;;;;;;14.30;9.10;;;;;;100414.40;;;;106823;1281;64876;-25
2022/01/08 00:58:15;;;;;;;12.90;8.80;;;;;;100416.71;;;;106797;1281;65296;-25
2022/01/08 01:00:43;;;;;;;13.10;8.60;;;;;;100415.75;;;;106789;1281;64810;-25
2022/01/08 01:03:10;;;;;;;13.00;9.00;;;;;;100418.58;;;;106538;1281;354943;-25
2022/01/08 01:05:38;;;;;;;13.60;9.00;;;;;;100417.86;;;;106820;1281;64871;-26
2022/01/08 01:08:06;;;;;;;12.20;8.50;;;;;;100415.64;;;;106768;1281;64926;-27
2022/01/08 01:10:33;;;;;;;14.20;9.50;;;;;;100411.84;;;;106816;1281;65218;-27
2022/01/08 01:13:00;;;;;;;11.70;8.30;;;;;;100407.47;;;;106797;1281;63869;-26
2022/01/08 01:15:27;;;;;;;14.60;9.00;;;;;;100402.78;;;;106802;1281;64841;-26
2022/01/08 01:17:55;;;;;;;13.50;8.60;;;;;;100400.21;;;;106798;1281;64765;-26
2022/01/08 01:20:22;;;;;;;13.20;8.30;;;;;;100392.86;;;;106882;1281;64776;-26
2022/01/08 01:23:08;;;;;;;12.10;8.60;;;;;;100387.55;;;;106830;1281;65849;-26
2022/01/08 01:25:45;;;;;;;11.30;8.00;;;;;;100389.13;;;;106780;1281;64770;-25
2022/01/08 01:41:43;;;;;;;15.30;8.00;;;;;;100372.73;;;;106950;1279;64929;-25
2022/01/08 01:47:04;;;;;;;12.70;8.70;;;;;;100370.16;;;;106935;1281;64837;-25
2022/01/08 01:49:34;;;;;;;11.70;8.00;;;;;;100368.83;;;;106881;1281;66076;-25
2022/01/08 01:52:04;;;;;;;12.80;8.50;;;;;;100367.89;;;;106749;1281;64888;-25
2022/01/08 01:54:33;;;;;;;12.40;8.50;;;;;;100371.21;;;;106936;1281;64802;-26
2022/01/08 01:57:03;;;;;;;13.50;8.50;;;;;;100372.88;;;;106956;1279;64940;-25
2022/01/08 01:59:32;;;;;;;12.20;8.20;;;;;;100368.81;;;;106969;1279;64894;-27
2022/01/08 02:02:00;;;;;;;11.90;8.30;;;;;;100369.12;;;;106943;1279;65973;-27
2022/01/08 02:04:27;;;;;;;11.10;8.10;;;;;;100369.03;;;;106939;1279;64794;-27
2022/01/08 02:06:54;;;;;;;11.60;8.20;;;;;;100367.25;;;;106898;1281;64876;-29
2022/01/08 02:09:22;;;;;;;12.10;7.70;;;;;;100364.31;;;;106947;1279;64861;-27
2022/01/08 02:12:05;;;;;;;12.60;8.40;;;;;;100361.31;;;;106952;1279;65003;-27
2022/01/08 02:14:37;;;;;;;10.80;7.70;;;;;;100357.86;;;;106902;1281;66681;-33
2022/01/08 02:17:06;;;;;;;12.00;7.90;;;;;;100354.36;;;;106654;1280;64864;-27
2022/01/08 02:19:34;;;;;;;11.60;8.10;;;;;;100346.67;;;;106809;1280;64607;-26
2022/01/08 02:22:03;;;;;;;12.70;8.00;;;;;;100339.54;;;;106900;1281;64774;-31
2022/01/08 02:24:31;;;;;;;12.70;8.30;;;;;;100342.81;;;;106980;1280;64881;-27
2022/01/08 02:26:59;;;;;;;12.60;7.90;;;;;;100344.08;;;;106864;1280;67657;-27
2022/01/08 02:29:26;;;;;;;11.40;7.60;;;;;;100345.66;;;;106934;1279;64895;-27
2022/01/08 02:32:06;;;;;;;12.50;7.70;;;;;;100344.22;;;;106896;1281;64790;-27
2022/01/08 02:34:37;;;;;;;12.50;8.30;;;;;;100340.44;;;;106905;1280;64712;-26
2022/01/08 02:37:06;;;;;;;12.40;8.00;;;;;;100339.80;;;;106955;1279;64980;-26
2022/01/08 02:39:39;;;;;;;11.20;7.60;;;;;;100341.35;;;;106827;1282;66592;-27
2022/01/08 02:42:11;;;;;;;13.00;8.50;;;;;;100341.73;;;;106922;1281;64873;-27
2022/01/08 02:44:42;;;;;;;11.50;8.20;;;;;;100339.42;;;;106776;1281;64980;-27
2022/01/08 02:47:10;;;;;;;11.80;8.10;;;;;;100333.38;;;;106919;1281;64821;-27
2022/01/08 02:49:37;;;;;;;12.40;7.90;;;;;;100328.88;;;;106832;1279;64758;-26
2022/01/08 02:52:07;;;;;;;12.20;8.00;;;;;;100323.40;;;;106949;1279;67130;-27
2022/01/08 02:54:34;;;;;;;11.60;7.50;;;;;;100323.25;;;;106962;1280;64868;-26
2022/01/08 02:57:02;;;;;;;11.80;8.00;;;;;;100319.02;;;;106881;1281;64772;-27
2022/01/08 02:59:29;;;;;;;12.80;7.60;;;;;;100317.84;;;;106902;1281;65980;-27
2022/01/08 03:01:57;;;;;;;12.40;7.80;;;;;;100314.76;;;;106808;1281;64993;-27
2022/01/08 03:04:24;;;;;;;12.10;7.90;;;;;;100314.06;;;;106903;1282;66445;-26
2022/01/08 03:06:51;;;;;;;11.00;7.10;;;;;;100311.07;;;;106895;1281;64772;-30
2022/01/08 03:09:19;;;;;;;11.00;7.70;;;;;;100312.71;;;;106932;1279;64777;-27
2022/01/08 03:11:46;;;;;;;11.10;7.50;;;;;;100313.85;;;;106862;1281;64867;-27
2022/01/08 03:14:13;;;;;;;11.20;7.60;;;;;;100316.79;;;;106886;1280;64737;-27
2022/01/08 03:16:40;;;;;;;11.40;6.80;;;;;;100319.23;;;;106908;1281;66501;-27
2022/01/08 03:19:10;;;;;;;11.20;7.40;;;;;;100324.11;;;;106747;1281;64888;-26
2022/01/08 03:21:43;;;;;;;11.80;8.30;;;;;;100330.38;;;;106953;1280;64741;-26
2022/01/08 03:24:17;;;;;;;10.80;7.40;;;;;;100321.98;;;;106954;1279;64982;-26
2022/01/08 03:26:44;;;;;;;10.90;7.00;;;;;;100319.45;;;;106943;1279;64651;-26
2022/01/08 03:29:12;;;;;;;11.70;7.40;;;;;;100318.83;;;;106889;1281;64819;-26
2022/01/08 03:31:39;;;;;;;11.00;7.80;;;;;;100314.77;;;;106920;1280;64770;-26
2022/01/08 03:34:06;;;;;;;12.00;7.60;;;;;;100311.98;;;;106915;1279;64805;-27
2022/01/08 03:36:33;;;;;;;10.40;7.60;;;;;;100309.30;;;;106931;1279;64735;-27
2022/01/08 03:39:01;;;;;;;10.50;7.00;;;;;;100305.52;;;;106964;1279;64743;-26
2022/01/08 03:41:28;;;;;;;11.40;7.60;;;;;;100308.66;;;;106951;1279;66641;-27
2022/01/08 03:43:55;;;;;;;11.20;7.30;;;;;;100302.65;;;;106906;1281;64769;-26
2022/01/08 03:46:27;;;;;;;11.10;7.30;;;;;;100299.50;;;;106909;1281;64730;-29
2022/01/08 03:51:29;;;;;;;10.60;6.70;;;;;;100298.49;;;;106962;1279;64876;-26
2022/01/08 03:53:57;;;;;;;10.90;7.10;;;;;;100297.56;;;;106947;1281;66429;-33
2022/01/08 03:56:27;;;;;;;9.80;7.40;;;;;;100294.79;;;;106894;1281;64741;-26
2022/01/08 03:58:54;;;;;;;14.20;7.50;;;;;;100291.27;;;;106768;1280;64853;-26
2022/01/08 04:01:21;;;;;;;10.70;7.10;;;;;;100289.20;;;;106900;1281;64857;-27
2022/01/08 04:03:51;;;;;;;12.30;8.00;;;;;;100287.94;;;;106932;1280;64942;-26
2022/01/08 04:06:19;;;;;;;11.30;7.20;;;;;;100288.02;;;;106913;1281;67228;-26
2022/01/08 04:08:46;;;;;;;12.40;7.10;;;;;;100280.11;;;;106906;1281;64793;-26
2022/01/08 04:11:14;;;;;;;10.70;7.40;;;;;;100276.23;;;;106869;1281;64995;-27
2022/01/08 04:13:42;;;;;;;11.10;7.20;;;;;;100274.09;;;;106909;1281;64860;-27
2022/01/08 04:16:13;;;;;;;10.60;7.40;;;;;;100275.60;;;;106954;1280;65173;-26
2022/01/08 04:18:41;;;;;;;11.20;7.20;;;;;;100284.19;;;;106957;1280;66285;-26
2022/01/08 04:23:56;;;;;;;11.00;7.30;;;;;;100273.91;;;;106932;1280;64772;-25
2022/01/08 04:26:25;;;;;;;11.40;7.30;;;;;;100272.36;;;;106920;1281;65053;-27
2022/01/08 04:28:55;;;;;;;10.60;7.20;;;;;;100266.94;;;;106925;1281;64746;-26
2022/01/08 04:31:24;;;;;;;11.50;8.00;;;;;;100265.08;;;;106949;1280;65740;-26
2022/01/08 04:33:53;;;;;;;11.60;6.80;;;;;;100266.64;;;;106935;1281;64758;-30
2022/01/08 04:36:20;;;;;;;10.80;7.10;;;;;;100266.34;;;;106975;1281;64863;-27
2022/01/08 04:38:48;;;;;;;12.10;7.40;;;;;;100262.92;;;;106945;1283;64819;-26
2022/01/08 04:41:15;;;;;;;11.30;7.90;;;;;;100258.95;;;;106949;1281;64898;-25
2022/01/08 04:43:43;;;;;;;10.20;7.20;;;;;;100257.78;;;;106951;1281;66118;-25
2022/01/08 04:46:11;;;;;;;11.40;7.50;;;;;;100254.40;;;;106931;1280;64988;-25
2022/01/08 04:48:39;;;;;;;10.40;7.30;;;;;;100256.23;;;;106935;1280;64766;-25
2022/01/08 04:51:07;;;;;;;11.30;7.80;;;;;;100256.35;;;;106817;1280;64797;-26
2022/01/08 04:53:34;;;;;;;10.60;7.60;;;;;;100259.59;;;;106959;1281;64756;-26
2022/01/08 04:56:02;;;;;;;11.40;7.50;;;;;;100264.24;;;;106962;1280;64974;-26
2022/01/08 04:58:29;;;;;;;12.20;8.00;;;;;;100263.83;;;;106930;1281;64795;-25
2022/01/08 05:00:57;;;;;;;11.50;7.70;;;;;;100256.89;;;;106925;1281;64881;-27
2022/01/08 05:03:24;;;;;;;12.90;7.70;;;;;;100254.64;;;;106910;1280;64864;-27
2022/01/08 05:05:51;;;;;;;10.50;6.90;;;;;;100251.77;;;;106803;1281;65010;-27
2022/01/08 05:08:19;;;;;;;10.80;7.40;;;;;;100249.13;;;;106904;1281;65274;-27
2022/01/08 05:10:46;;;;;;;10.80;7.30;;;;;;100247.70;;;;106920;1281;64773;-26
2022/01/08 05:13:13;;;;;;;12.10;7.70;;;;;;100244.80;;;;106931;1281;65841;-26
2022/01/08 05:15:41;;;;;;;10.90;7.40;;;;;;100245.80;;;;106911;1279;64873;-27
2022/01/08 05:18:10;;;;;;;11.50;7.70;;;;;;100246.65;;;;106962;1281;65056;-28
2022/01/08 05:20:41;;;;;;;12.00;7.80;;;;;;100245.82;;;;106912;1281;65995;-35
2022/01/08 05:23:08;;;;;;;12.00;7.90;;;;;;100245.21;;;;106946;1283;65641;-27
2022/01/08 05:25:35;;;;;;;11.20;7.50;;;;;;100244.77;;;;106898;1281;64776;-26
2022/01/08 05:28:03;;;;;;;11.90;7.70;;;;;;100241.52;;;;106683;1283;64801;-26
2022/01/08 05:30:30;;;;;;;11.70;7.90;;;;;;100239.66;;;;106690;1284;64781;-26
2022/01/08 05:32:58;;;;;;;11.70;7.90;;;;;;100238.23;;;;106924;1281;66117;-26
2022/01/08 05:35:26;;;;;;;12.00;7.40;;;;;;100233.77;;;;106969;1279;64786;-26
2022/01/08 05:37:55;;;;;;;10.90;7.20;;;;;;100236.23;;;;106789;1281;64837;-26
2022/01/08 05:40:23;;;;;;;10.30;7.10;;;;;;100244.57;;;;106714;1282;64776;-25
2022/01/08 05:42:50;;;;;;;10.70;7.00;;;;;;100240.52;;;;106974;1279;64853;-25
2022/01/08 05:45:18;;;;;;;10.40;8.00;;;;;;100243.54;;;;106919;1281;67689;-27
2022/01/08 05:47:46;;;;;;;12.80;7.80;;;;;;100249.23;;;;106915;1281;64778;-25
2022/01/08 05:50:13;;;;;;;11.10;7.60;;;;;;100243.36;;;;106913;1280;64780;-27
2022/01/08 05:52:41;;;;;;;10.10;7.20;;;;;;100242.41;;;;106863;1281;64796;-27
2022/01/08 05:55:09;;;;;;;9.70;6.80;;;;;;100242.30;;;;106954;1281;64879;-27
2022/01/08 05:57:36;;;;;;;11.00;7.60;;;;;;100245.95;;;;106920;1281;66482;-27
2022/01/08 06:00:07;;;;;;;11.60;7.90;;;;;;100246.91;;;;106870;1281;64793;-27
2022/01/08 06:02:36;;;;;;;10.90;8.00;;;;;;100243.79;;;;106929;1280;64758;-27
2022/01/08 06:05:07;;;;;;;11.40;7.80;;;;;;100242.63;;;;106956;1281;64899;-26
2022/01/08 06:07:35;;;;;;;11.40;7.90;;;;;;100240.08;;;;106965;1281;64803;-28
2022/01/08 06:10:04;;;;;;;12.90;7.90;;;;;;100246.58;;;;106866;1281;66121;-26
2022/01/08 06:12:32;;;;;;;10.80;7.60;;;;;;100249.49;;;;106779;1281;64766;-26
2022/01/08 06:14:59;;;;;;;10.70;7.50;;;;;;100243.77;;;;106888;1281;64888;-26
2022/01/08 06:17:26;;;;;;;11.60;7.30;;;;;;100236.27;;;;106907;1281;64834;-27
2022/01/08 06:19:54;;;;;;;12.00;7.60;;;;;;100235.08;;;;106979;1281;64846;-26
2022/01/08 06:22:21;;;;;;;11.30;7.60;;;;;;100237.76;;;;106952;1281;67852;-26
2022/01/08 06:24:48;;;;;;;10.80;7.50;;;;;;100240.66;;;;106957;1281;64757;-27
2022/01/08 06:27:15;;;;;;;11.90;8.10;;;;;;100244.39;;;;106973;1279;64968;-28
2022/01/08 06:29:42;;;;;;;11.30;7.90;;;;;;100240.93;;;;106962;1281;64864;-27
2022/01/08 06:32:10;;;;;;;11.00;7.80;;;;;;100241.61;;;;106930;1279;64808;-27
2022/01/08 06:34:37;;;;;;;11.90;7.60;;;;;;100242.43;;;;106986;1281;68017;-27
2022/01/08 06:37:04;;;;;;;11.50;7.50;;;;;;100241.63;;;;106923;1281;64737;-27
2022/01/08 06:39:32;;;;;;;11.90;8.50;;;;;;100238.16;;;;106964;1278;64789;-27
2022/01/08 06:41:59;;;;;;;10.80;7.60;;;;;;100237.02;;;;106908;1281;64933;-27
2022/01/08 06:44:27;;;;;;;11.10;7.60;;;;;;100234.45;;;;106935;1281;64727;-30
2022/01/08 06:46:54;;;;;;;11.20;8.00;;;;;;100235.17;;;;106982;1280;66117;-27
2022/01/08 06:49:22;;;;;;;12.20;7.50;;;;;;100234.85;;;;106980;1281;64832;-26
2022/01/08 06:51:50;;;;;;;10.90;8.00;;;;;;100234.77;;;;106952;1281;64770;-26
2022/01/08 06:54:17;;;;;;;11.70;8.10;;;;;;100236.48;;;;106886;1281;64913;-27
2022/01/08 06:56:45;;;;;;;11.70;7.80;;;;;;100236.28;;;;106925;1281;64879;-27
2022/01/08 06:59:12;;;;;;;11.80;8.20;;;;;;100235.81;;;;106976;1281;66538;-27
2022/01/08 07:01:39;;;;;;;11.00;7.40;;;;;;100236.66;;;;106966;1277;64748;-28
2022/01/08 07:04:07;;;;;;;12.30;7.90;;;;;;100234.90;;;;106945;1281;64864;-27
2022/01/08 07:06:34;;;;;;;11.50;8.50;;;;;;100234.41;;;;106971;1278;64800;-27
2022/01/08 07:09:03;;;;;;;11.60;8.30;;;;;;100232.77;;;;106970;1278;65090;-25
2022/01/08 07:11:30;;;;;;;11.10;8.40;;;;;;100232.80;;;;106996;1281;67534;-26
2022/01/08 07:13:57;;;;;;;10.40;7.90;;;;;;100229.55;;;;106952;1280;64818;-26
2022/01/08 07:16:24;;;;;;;12.40;7.60;;;;;;100230.18;;;;106953;1280;64615;-26
2022/01/08 07:18:51;;;;;;;12.00;7.90;;;;;;100234.61;;;;106960;1278;64847;-26
2022/01/08 07:21:18;;;;;;;12.60;8.50;;;;;;100236.88;;;;106920;1281;64847;-26
2022/01/08 07:23:48;;;;;;;13.20;8.00;;;;;;100232.17;;;;106782;1281;65995;-27
2022/01/08 07:26:16;;;;;;;11.00;8.20;;;;;;100232.48;;;;106880;1281;64910;-31
2022/01/08 07:28:43;;;;;;;12.70;8.00;;;;;;100228.25;;;;106937;1278;64792;-27
2022/01/08 07:31:10;;;;;;;11.30;7.90;;;;;;100220.99;;;;106945;1278;64740;-24
2022/01/08 07:33:37;;;;;;;12.90;8.50;;;;;;100218.38;;;;106940;1280;64897;-26
2022/01/08 07:36:04;;;;;;;9.80;7.50;;;;;;100220.38;;;;106753;1281;64865;-27
2022/01/08 07:38:32;;;;;;;13.10;8.70;;;;;;100222.08;;;;106951;1278;64748;-27
2022/01/08 07:40:59;;;;;;;11.80;7.70;;;;;;100219.56;;;;106939;1280;64907;-27
2022/01/08 07:43:26;;;;;;;11.80;8.30;;;;;;100216.93;;;;106755;1280;64862;-27
2022/01/08 07:45:53;;;;;;;11.50;7.90;;;;;;100210.25;;;;106971;1280;64878;-28
2022/01/08 07:48:20;;;;;;;12.80;7.80;;;;;;100211.58;;;;106921;1281;65312;-25
2022/01/08 07:50:47;;;;;;;11.90;8.40;;;;;;100211.86;;;;106945;1280;64908;-30
2022/01/08 07:53:15;;;;;;;10.80;8.20;;;;;;100211.44;;;;106895;1281;64753;-27
2022/01/08 07:55:42;;;;;;;12.20;8.50;;;;;;100210.47;;;;106955;1279;64799;-25
2022/01/08 07:58:09;;;;;;;10.90;7.80;;;;;;100215.09;;;;106975;1278;64767;-26
2022/01/08 08:00:37;;;;;;;12.40;8.10;;;;;;100214.25;;;;106981;1278;65996;-27
2022/01/08 08:03:04;;;;;;;11.70;7.80;;;;;;100213.71;;;;106870;1281;64755;-28
2022/01/08 08:05:32;;;;;;;11.90;8.20;;;;;;100215.33;;;;106920;1279;64895;-27
2022/01/08 08:08:00;;;;;;;10.90;8.10;;;;;;100217.55;;;;106976;1278;64776;-26
2022/01/08 08:10:28;;;;;;;11.00;8.40;;;;;;100217.06;;;;106987;1278;64987;-26
2022/01/08 08:12:56;;;;;;;13.20;8.70;;;;;;100214.05;;;;106890;1279;66496;-26
2022/01/08 08:15:23;;;;;;;12.10;8.10;;;;;;100216.23;;;;106949;1280;65989;-27
2022/01/08 08:17:53;;;;;;;11.00;8.10;;;;;;100214.40;;;;106971;1280;65431;-26
2022/01/08 08:20:20;;;;;;;11.90;8.10;;;;;;100209.33;;;;106993;1278;64808;-25
2022/01/08 08:22:47;;;;;;;11.50;8.30;;;;;;100202.02;;;;106976;1280;64790;-25
2022/01/08 08:25:15;;;;;;;11.20;7.90;;;;;;100201.94;;;;106941;1279;66123;-26
2022/01/08 08:27:43;;;;;;;12.70;8.60;;;;;;100205.33;;;;106977;1280;64868;-26
2022/01/08 08:30:11;;;;;;;11.00;8.20;;;;;;100209.48;;;;106969;1280;63673;-26
2022/01/08 08:32:39;;;;;;;11.80;8.20;;;;;;100210.74;;;;106924;1279;64799;-26
2022/01/08 08:35:08;;;;;;;12.40;8.20;;;;;;100205.48;;;;106936;1280;64959;-28
2022/01/08 08:37:37;;;;;;;11.50;7.80;;;;;;100198.84;;;;106929;1280;65959;-27
2022/01/08 08:40:05;;;;;;;11.10;8.20;;;;;;100196.09;;;;106988;1280;64984;-26
2022/01/08 08:42:32;;;;;;;13.40;8.40;;;;;;100199.75;;;;106992;1278;64825;-26
2022/01/08 08:44:59;;;;;;;13.10;8.60;;;;;;100199.65;;;;106892;1279;64844;-27
2022/01/08 08:47:26;;;;;;;11.80;8.70;;;;;;100201.39;;;;107023;1280;64833;-27
2022/01/08 08:49:54;;;;;;;11.20;7.70;;;;;;100200.04;;;;106978;1280;66007;-27
2022/01/08 08:52:23;;;;;;;12.60;8.40;;;;;;100199.98;;;;106767;1280;64874;-27
2022/01/08 08:54:51;;;;;;;12.40;8.10;;;;;;100205.46;;;;106960;1280;64854;-25
2022/01/08 08:57:19;;;;;;;11.90;8.20;;;;;;100205.11;;;;106904;1279;64787;-25
2022/01/08 08:59:46;;;;;;;11.50;8.20;;;;;;100204.45;;;;107019;1280;64891;-25
2022/01/08 09:02:14;;;;;;;12.10;8.50;;;;;;100203.96;;;;106714;1280;348642;-25
2022/01/08 09:04:41;;;;;;;12.20;9.00;;;;;;100200.66;;;;106897;1279;64891;-25
2022/01/08 09:07:09;;;;;;;12.50;8.30;;;;;;100195.60;;;;106956;1280;66015;-26
2022/01/08 09:09:36;;;;;;;12.70;8.50;;;;;;100194.81;;;;106954;1280;64787;-27
2022/01/08 09:12:04;;;;;;;13.20;9.10;;;;;;100193.69;;;;106921;1280;64990;-26
2022/01/08 09:14:32;;;;;;;12.60;7.70;;;;;;100189.86;;;;107021;1280;65874;-27
2022/01/08 09:17:03;;;;;;;14.10;8.50;;;;;;100188.95;;;;106900;1279;64862;-26
2022/01/08 09:19:31;;;;;;;12.20;8.40;;;;;;100179.11;;;;106808;1280;64849;-38
2022/01/08 09:22:01;;;;;;;13.80;8.70;;;;;;100170.13;;;;106915;1279;64842;-27
2022/01/08 09:24:29;;;;;;;13.70;8.60;;;;;;100168.97;;;;107006;1280;64629;-27
2022/01/08 09:26:56;;;;;;;12.60;8.70;;;;;;100167.73;;;;106983;1280;66171;-38
2022/01/08 09:29:23;;;;;;;12.60;7.80;;;;;;100167.84;;;;106910;1279;64773;-27
2022/01/08 09:31:51;;;;;;;14.10;9.00;;;;;;100167.64;;;;106961;1280;64792;-27
2022/01/08 09:34:19;;;;;;;15.70;9.40;;;;;;100169.42;;;;106971;1280;64887;-27
2022/01/08 09:36:48;;;;;;;12.40;8.80;;;;;;100168.64;;;;106966;1280;64744;-27
2022/01/08 09:39:15;;;;;;;14.80;8.70;;;;;;100167.92;;;;107015;1280;67128;-32
2022/01/08 09:41:43;;;;;;;11.80;8.20;;;;;;100171.95;;;;106794;1281;64832;-34
2022/01/08 09:44:12;;;;;;;13.30;8.50;;;;;;100172.86;;;;106984;1278;64784;-25
2022/01/08 09:46:40;;;;;;;14.20;8.50;;;;;;100173.20;;;;106906;1279;64786;-28
2022/01/08 09:49:07;;;;;;;14.90;9.00;;;;;;100169.83;;;;106980;1280;64905;-27
2022/01/08 09:51:35;;;;;;;13.10;8.60;;;;;;100163.13;;;;106993;1280;65222;-30
2022/01/08 09:54:03;;;;;;;14.40;10.30;;;;;;100166.35;;;;106986;1280;64834;-27
2022/01/08 09:56:32;;;;;;;14.20;9.20;;;;;;100172.02;;;;106853;1280;64962;-26
2022/01/08 09:59:00;;;;;;;14.50;9.20;;;;;;100169.81;;;;106969;1280;64837;-26
2022/01/08 10:01:34;;;;;;;14.40;9.20;;;;;;100174.27;;;;107012;1280;64976;-26
2022/01/08 10:04:05;;;;;;;14.70;9.90;;;;;;100172.59;;;;106859;1281;66146;-26
2022/01/08 10:06:35;;;;;;;16.70;10.90;;;;;;100174.39;;;;106961;1280;64773;-33
2022/01/08 10:09:05;;;;;;;15.10;10.30;;;;;;100182.13;;;;106964;1280;64740;-38
2022/01/08 10:11:33;;;;;;;16.70;11.80;;;;;;100175.34;;;;106768;1279;64902;-27
2022/01/08 10:14:06;;;;;;;14.50;10.00;;;;;;100182.55;;;;108698;1280;62611;-31
2022/01/08 10:19:29;;;;;;;15.90;11.00;;;;;;100191.18;;;;106871;1280;64587;-27
2022/01/08 10:21:56;;;;;;;16.10;10.50;;;;;;100181.31;;;;106927;1280;64815;-26
2022/01/08 10:24:27;;;;;;;13.70;9.80;;;;;;100172.31;;;;106738;1281;64873;-26
2022/01/08 10:27:05;;;;;;;16.70;11.30;;;;;;100158.65;;;;106842;1279;64840;-24
2022/01/08 10:29:34;;;;;;;15.80;10.10;;;;;;100154.64;;;;106755;1282;66882;-24
2022/01/08 10:32:04;;;;;;;15.30;9.50;;;;;;100155.95;;;;106801;1280;64870;-29
2022/01/08 10:34:32;;;;;;;15.90;10.40;;;;;;100144.40;;;;106832;1281;64889;-26
2022/01/08 10:37:07;;;;;;;17.20;9.80;;;;;;100139.30;;;;106644;1280;64819;-28
2022/01/08 10:39:38;;;;;;;16.20;10.40;;;;;;100133.73;;;;106832;1280;64878;-27
2022/01/08 10:42:14;;;;;;;20.20;10.20;;;;;;100131.03;;;;107158;1279;65896;-31
2022/01/08 10:44:46;;;;;;;16.00;10.30;;;;;;100117.38;;;;106931;1280;64712;-27
2022/01/08 10:47:17;;;;;;;16.80;10.40;;;;;;100117.27;;;;106969;1280;64846;-27
2022/01/08 10:50:06;;;;;;;16.00;11.00;;;;;;100106.39;;;;106867;1280;64747;-29
2022/01/08 10:52:48;;;;;;;16.70;10.10;;;;;;100099.39;;;;106956;1280;64773;-26
2022/01/08 10:55:29;;;;;;;14.80;10.20;;;;;;100095.48;;;;107004;1280;65959;-25
2022/01/08 10:57:56;;;;;;;14.60;10.00;;;;;;100093.08;;;;106896;1280;64863;-28
2022/01/08 11:00:32;;;;;;;14.60;10.10;;;;;;100100.83;;;;106964;1280;64748;-27
2022/01/08 11:03:00;;;;;;;16.70;11.50;;;;;;100100.95;;;;106874;1280;64825;-27
2022/01/08 11:05:28;;;;;;;15.50;10.00;;;;;;100108.09;;;;106995;1278;64771;-27
2022/01/08 11:08:15;;;;;;;16.80;10.60;;;;;;100106.52;;;;106968;1279;65174;-28
2022/01/08 11:10:43;;;;;;;17.30;11.90;;;;;;100106.88;;;;106932;1279;64869;-28
2022/01/08 11:13:14;;;;;;;15.20;10.10;;;;;;100114.50;;;;106801;1280;64839;-28
2022/01/08 11:15:49;;;;;;;16.30;10.50;;;;;;100116.66;;;;106827;1280;64787;-30
2022/01/08 11:18:22;;;;;;;14.70;10.90;;;;;;100113.14;;;;106642;1280;64983;-25
2022/01/08 11:20:50;;;;;;;;;;;;;;100115.21;;;;106983;1280;67464;-30
2022/01/08 11:23:23;;;;;;;14.20;10.10;;;;;;100118.95;;;;106883;1280;63645;-27
2022/01/08 11:25:55;;;;;;;16.50;11.30;;;;;;100112.56;;;;106943;1280;65982;-30
2022/01/08 11:28:39;;;;;;;13.90;9.30;;;;;;100111.15;;;;106780;1279;64746;-29
2022/01/08 11:31:10;;;;;;;16.90;10.20;;;;;;100107.22;;;;106902;1280;64962;-29
2022/01/08 11:33:48;;;;;;;18.00;11.60;;;;;;100107.10;;;;106684;1280;68185;-27
2022/01/08 11:36:17;;;;;;;21.20;11.00;;;;;;100105.28;;;;106909;1280;64758;-27
2022/01/08 11:38:45;;;;;;;18.40;10.20;;;;;;100104.52;;;;106614;1280;64758;-27
2022/01/08 11:41:15;;;;;;;17.20;9.90;;;;;;100107.02;;;;106974;1280;64866;-27
2022/01/08 11:43:45;;;;;;;16.40;10.40;;;;;;100108.61;;;;106963;1280;64713;-26
2022/01/08 11:46:13;;;;;;;17.60;10.90;;;;;;100108.65;;;;106970;1280;64731;-29
2022/01/08 11:48:48;;;;;;;14.10;10.30;;;;;;100109.24;;;;106802;1279;64946;-26
2022/01/08 11:51:24;;;;;;;17.00;11.10;;;;;;100112.96;;;;106881;1280;64910;-26
2022/01/08 11:53:57;;;;;;;15.40;10.00;;;;;;100113.20;;;;106946;1280;64845;-29
2022/01/08 11:56:36;;;;;;;16.00;10.70;;;;;;100111.19;;;;106840;1279;64744;-28
2022/01/08 11:59:10;;;;;;;15.30;10.60;;;;;;100110.73;;;;106840;1280;67014;-27
2022/01/08 12:02:04;;;;;;;14.80;10.50;;;;;;100109.72;;;;106875;1279;64757;-33
2022/01/08 12:04:36;;;;;;;13.50;10.40;;;;;;100111.86;;;;106807;1279;64057;-26
2022/01/08 12:07:37;;;;;;;14.10;9.40;;;;;;100112.55;;;;106856;1280;64898;-29
2022/01/08 12:10:25;;;;;;;13.80;9.90;;;;;;100105.31;;;;106958;1280;64871;-27
2022/01/08 12:12:59;;;;;;;13.30;9.40;;;;;;100106.30;;;;106970;1280;67139;-28
2022/01/08 12:15:53;;;;;;;15.60;10.20;;;;;;100102.41;;;;106944;1280;64786;-27
2022/01/08 12:18:21;;;;;;;14.70;10.40;;;;;;100104.82;;;;106925;1280;64831;-26
2022/01/08 12:20:56;;;;;;;15.80;10.00;;;;;;100105.09;;;;106952;1280;64807;-25
2022/01/08 12:23:40;;;;;;;13.90;9.50;;;;;;100101.45;;;;106592;1279;64787;-29
2022/01/08 12:26:27;;;;;;;14.80;10.00;;;;;;100094.83;;;;106840;1280;65839;-26
2022/01/08 12:29:00;;;;;;;15.60;10.10;;;;;;100093.49;;;;106798;1280;64927;-26
2022/01/08 12:31:48;;;;;;;15.30;10.20;;;;;;100091.84;;;;106933;1279;64880;-25
2022/01/08 12:34:38;;;;;;;14.60;10.20;;;;;;100093.11;;;;106868;1279;64901;-25
2022/01/08 12:37:13;;;;;;;15.40;9.70;;;;;;100089.39;;;;106902;1279;64809;-25
2022/01/08 12:39:48;;;;;;;16.40;10.40;;;;;;100089.48;;;;106938;1279;65916;-26
2022/01/08 12:42:25;;;;;;;13.50;10.10;;;;;;100087.95;;;;106858;1279;64889;-26
2022/01/08 12:45:09;;;;;;;15.90;10.40;;;;;;100083.13;;;;106883;1279;64611;-38
2022/01/08 12:47:43;;;;;;;13.90;10.00;;;;;;100078.85;;;;106901;1279;64766;-27
2022/01/08 12:50:55;;;;;;;12.80;9.30;;;;;;100075.94;;;;106930;1279;64891;-27
2022/01/08 12:53:30;;;;;;;14.80;9.90;;;;;;100075.55;;;;106895;1281;65868;-25
2022/01/08 12:56:08;;;;;;;15.00;8.80;;;;;;100072.61;;;;106871;1279;64892;-28
2022/01/08 12:58:47;;;;;;;14.70;10.00;;;;;;100071.90;;;;106803;1279;64871;-26
2022/01/08 13:01:20;;;;;;;16.20;10.10;;;;;;100072.13;;;;106874;1279;64748;-32
2022/01/08 13:03:58;;;;;;;;;;;;;;100075.20;;;;106788;1279;64903;-29
2022/01/08 13:06:33;;;;;;;12.80;9.10;;;;;;100073.23;;;;106758;1279;67245;-26
2022/01/08 13:09:03;;;;;;;14.30;10.10;;;;;;100075.71;;;;106820;1281;64757;-27
2022/01/08 13:11:34;;;;;;;15.30;10.60;;;;;;100079.20;;;;106918;1278;64896;-28
2022/01/08 13:14:01;;;;;;;13.90;10.10;;;;;;100077.08;;;;106926;1279;64779;-24